createdAt,value
2017-11-07T00:02:22.414Z,100457.75
2017-11-07T00:08:25.917Z,100453.86
2017-11-07T00:14:30.173Z,100456.08
2017-11-07T00:20:33.680Z,100456.70
2017-11-07T00:26:37.172Z,100464.37
2017-11-07T00:32:40.675Z,100468.31
2017-11-07T00:38:44.938Z,100466.99
2017-11-07T00:44:48.439Z,100462.86
2017-11-07T00:50:51.957Z,100461.78
2017-11-07T00:56:55.497Z,100458.98
2017-11-07T01:02:58.993Z,100465.55
2017-11-07T01:09:02.475Z,100458.67
2017-11-07T01:15:05.966Z,100463.34
2017-11-07T01:21:09.477Z,100451.50
2017-11-07T01:27:13.734Z,100459.21
2017-11-07T01:33:17.234Z,100454.44
2017-11-07T01:39:20.739Z,100447.17
2017-11-07T01:45:25.003Z,100447.28
2017-11-07T01:51:28.500Z,100440.43
2017-11-07T01:57:31.980Z,100441.33
2017-11-07T02:03:35.464Z,100442.98
2017-11-07T02:09:38.945Z,100433.86
2017-11-07T02:15:42.459Z,100433.23
2017-11-07T02:21:46.697Z,100436.25
2017-11-07T02:27:50.179Z,100424.30
2017-11-07T02:33:53.652Z,100439.88
2017-11-07T02:39:57.149Z,100425.45
2017-11-07T02:46:00.633Z,100427.55
2017-11-07T02:52:04.130Z,100420.37
2017-11-07T02:58:07.621Z,100421.20
2017-11-07T03:04:11.110Z,100420.24
2017-11-07T03:10:14.684Z,100409.25
2017-11-07T03:16:18.181Z,100419.52
2017-11-07T03:22:21.772Z,100416.80
2017-11-07T03:28:26.797Z,100409.63
2017-11-07T03:34:30.288Z,100403.41
2017-11-07T03:40:33.777Z,100401.44
2017-11-07T03:46:37.264Z,100393.31
2017-11-07T03:52:40.744Z,100382.67
2017-11-07T03:58:44.272Z,100380.84
2017-11-07T04:04:47.763Z,100380.45
2017-11-07T04:10:51.269Z,100390.05
2017-11-07T04:16:54.782Z,100393.78
2017-11-07T04:22:58.267Z,100385.67
2017-11-07T04:29:01.777Z,100377.27
2017-11-07T04:35:06.040Z,100369.83
2017-11-07T04:41:09.552Z,100375.57
2017-11-07T04:47:13.822Z,100363.31
2017-11-07T04:53:17.309Z,100364.57
2017-11-07T04:59:20.812Z,100370.45
2017-11-07T05:05:24.327Z,100367.45
2017-11-07T05:11:27.852Z,100370.75
2017-11-07T05:17:31.344Z,100376.23
2017-11-07T05:23:34.834Z,100373.05
2017-11-07T05:29:38.338Z,100366.67
2017-11-07T05:35:42.616Z,100359.83
2017-11-07T05:41:47.030Z,100362.35
2017-11-07T05:47:50.535Z,100361.06
2017-11-07T05:53:54.894Z,100356.59
2017-11-07T05:59:58.388Z,100356.09
2017-11-07T06:06:01.893Z,100349.43
2017-11-07T06:12:06.885Z,100349.28
2017-11-07T06:18:10.388Z,100353.27
2017-11-07T06:24:15.374Z,100364.09
2017-11-07T06:30:18.863Z,100365.02
2017-11-07T06:36:22.379Z,100356.86
2017-11-07T06:42:25.864Z,100357.05
2017-11-07T06:48:29.342Z,100350.94
2017-11-07T06:54:32.837Z,100356.91
2017-11-07T07:00:36.312Z,100355.79
2017-11-07T07:06:39.803Z,100362.59
2017-11-07T07:12:43.301Z,100354.69
2017-11-07T07:18:46.782Z,100360.25
2017-11-07T07:24:50.357Z,100352.99
2017-11-07T07:30:55.291Z,100342.42
2017-11-07T07:36:59.540Z,100337.75
2017-11-07T07:43:03.025Z,100331.23
2017-11-07T07:49:06.517Z,100323.36
2017-11-07T07:55:10.001Z,100320.72
2017-11-07T08:01:13.516Z,100313.31
2017-11-07T08:07:17.643Z,100305.25
2017-11-07T08:13:22.102Z,100295.32
2017-11-07T08:19:26.015Z,100294.87
2017-11-07T08:25:29.805Z,100292.39
2017-11-07T08:31:34.798Z,100292.39
2017-11-07T08:37:38.528Z,100279.59
2017-11-07T08:43:42.795Z,100287.09
2017-11-07T08:49:46.280Z,100286.71
2017-11-07T08:55:49.753Z,100292.39
2017-11-07T09:01:53.574Z,100292.73
2017-11-07T09:07:57.050Z,100301.52
2017-11-07T09:14:00.634Z,100293.23
2017-11-07T09:20:04.130Z,100294.70
2017-11-07T09:26:07.614Z,100289.22
2017-11-07T09:32:11.105Z,100279.29
2017-11-07T09:38:15.387Z,100277.58
2017-11-07T09:44:18.866Z,100277.06
2017-11-07T09:50:22.352Z,100273.05
2017-11-07T09:56:25.863Z,100260.15
2017-11-07T10:02:29.336Z,100248.41
2017-11-07T10:08:33.123Z,100247.86
2017-11-07T10:14:36.890Z,100233.45
2017-11-07T10:20:40.699Z,100220.25
2017-11-07T10:26:44.170Z,100202.83
2017-11-07T10:32:47.982Z,100200.44
2017-11-07T10:38:52.245Z,100190.39
2017-11-07T10:44:55.713Z,100191.07
2017-11-07T10:50:59.454Z,100182.99
2017-11-07T10:57:02.935Z,100188.77
2017-11-07T11:03:06.433Z,100171.88
2017-11-07T11:09:10.239Z,100166.75
2017-11-07T11:15:14.488Z,100142.19
2017-11-07T11:21:17.969Z,100132.28
2017-11-07T11:27:21.455Z,100121.89
2017-11-07T11:33:25.668Z,100105.32
2017-11-07T11:39:29.149Z,100101.02
2017-11-07T11:45:32.966Z,100092.69
2017-11-07T11:51:36.449Z,100083.03
2017-11-07T11:57:39.935Z,100073.23
2017-11-07T12:03:43.422Z,100066.48
2017-11-07T12:09:47.104Z,100057.09
2017-11-07T12:15:50.621Z,100046.75
2017-11-07T12:21:55.208Z,100044.74
2017-11-07T12:27:58.710Z,100035.92
2017-11-07T12:34:02.953Z,100021.59
2017-11-07T12:40:06.573Z,100016.42
2017-11-07T12:46:10.134Z,100010.28
2017-11-07T12:52:13.626Z,100004.45
2017-11-07T12:58:17.199Z,99998.10
2017-11-07T13:04:20.678Z,99996.78
2017-11-07T13:10:25.022Z,99983.76
2017-11-07T13:16:28.825Z,99979.16
2017-11-07T13:22:33.080Z,99969.16
2017-11-07T13:28:36.555Z,99969.48
2017-11-07T13:34:40.039Z,99963.88
2017-11-07T13:40:43.527Z,99954.13
2017-11-07T13:46:47.024Z,99940.66
2017-11-07T13:52:50.511Z,99941.30
2017-11-07T13:58:53.988Z,99940.59
2017-11-07T14:04:57.473Z,99938.34
2017-11-07T14:11:01.310Z,99936.08
2017-11-07T14:17:05.573Z,99934.36
2017-11-07T14:23:09.221Z,99924.41
2017-11-07T14:29:12.705Z,99918.06
2017-11-07T14:35:16.206Z,99911.80
2017-11-07T14:41:19.731Z,99900.47
2017-11-07T14:47:24.078Z,99897.87
2017-11-07T14:53:28.346Z,99888.19
2017-11-07T14:59:31.839Z,99881.48
2017-11-07T15:05:35.338Z,99882.21
2017-11-07T15:11:39.614Z,99892.81
2017-11-07T15:17:43.130Z,99887.02
2017-11-07T15:23:47.377Z,99881.05
2017-11-07T15:29:50.953Z,99876.72
2017-11-07T15:35:54.503Z,99881.06
2017-11-07T15:41:59.080Z,99880.95
2017-11-07T15:48:02.740Z,99876.88
2017-11-07T15:54:06.250Z,99866.45
2017-11-07T16:00:09.743Z,99865.75
2017-11-07T16:06:13.539Z,99873.24
2017-11-07T16:12:17.017Z,99875.73
2017-11-07T16:18:20.498Z,99868.08
2017-11-07T16:24:24.606Z,99875.69
2017-11-07T16:30:28.393Z,99872.73
2017-11-07T16:36:31.879Z,99873.97
2017-11-07T16:42:35.377Z,99867.83
2017-11-07T16:48:38.868Z,99871.80
2017-11-07T16:54:43.122Z,99873.84
2017-11-07T17:00:46.695Z,99868.83
2017-11-07T17:06:50.535Z,99882.41
2017-11-07T17:12:54.808Z,99871.29
2017-11-07T17:18:58.310Z,99863.53
2017-11-07T17:25:01.891Z,99866.88
2017-11-07T17:31:05.420Z,99853.22
2017-11-07T17:37:09.673Z,99832.28
2017-11-07T17:43:13.163Z,99824.48
2017-11-07T17:49:16.657Z,99832.36
2017-11-07T17:55:20.920Z,99833.08
2017-11-07T18:01:24.578Z,99824.90
2017-11-07T18:07:29.157Z,99821.20
2017-11-07T18:13:33.040Z,99819.31
2017-11-07T18:19:36.544Z,99816.20
2017-11-07T18:25:40.035Z,99810.28
2017-11-07T18:31:44.299Z,99807.55
2017-11-07T18:37:47.802Z,99805.97
2017-11-07T18:43:51.599Z,99801.14
2017-11-07T18:49:55.098Z,99802.20
2017-11-07T18:55:59.365Z,99794.63
2017-11-07T19:02:03.173Z,99791.31
2017-11-07T19:08:06.655Z,99799.15
2017-11-07T19:14:10.163Z,99793.89
2017-11-07T19:20:14.454Z,99793.39
2017-11-07T19:26:17.995Z,99790.14
2017-11-07T19:32:21.484Z,99779.33
2017-11-07T19:38:24.973Z,99779.82
2017-11-07T19:44:28.449Z,99768.38
2017-11-07T19:50:31.955Z,99763.04
2017-11-07T19:56:35.458Z,99768.25
2017-11-07T20:02:38.946Z,99770.75
2017-11-07T20:08:42.728Z,99760.09
2017-11-07T20:14:46.252Z,99750.08
2017-11-07T20:20:50.097Z,99762.07
2017-11-07T20:26:53.590Z,99770.02
2017-11-07T20:32:57.080Z,99758.98
2017-11-07T20:39:01.334Z,99755.98
2017-11-07T20:45:05.097Z,99761.01
2017-11-07T20:51:09.333Z,99758.00
2017-11-07T20:57:12.840Z,99757.31
2017-11-07T21:03:16.655Z,99746.65
2017-11-07T21:15:29.978Z,99742.65
2017-11-07T21:21:33.755Z,99727.94
2017-11-07T21:27:37.265Z,99715.59
2017-11-07T21:33:41.513Z,99706.53
2017-11-07T21:39:46.752Z,99706.61
2017-11-07T21:45:50.244Z,99702.19
2017-11-07T21:51:55.231Z,99684.95
2017-11-07T21:57:58.743Z,99682.53
2017-11-07T22:04:02.239Z,99685.19
2017-11-07T22:10:06.071Z,99680.59
2017-11-07T22:16:09.539Z,99680.84
2017-11-07T22:22:13.041Z,99676.09
2017-11-07T22:28:16.521Z,99669.78
2017-11-07T22:34:20.017Z,99673.60
2017-11-07T22:40:23.498Z,99672.12
2017-11-07T22:46:27.013Z,99662.71
2017-11-07T22:52:30.775Z,99653.88
2017-11-07T22:58:34.267Z,99653.38
2017-11-07T23:04:37.769Z,99634.87
2017-11-07T23:10:41.244Z,99619.89
2017-11-07T23:16:45.064Z,99620.37
2017-11-07T23:22:48.657Z,99607.91
2017-11-07T23:28:52.137Z,99600.62
2017-11-07T23:34:55.606Z,99603.16
2017-11-07T23:40:59.085Z,99598.09
2017-11-07T23:47:02.584Z,99592.83
2017-11-07T23:53:06.071Z,99592.19
2017-11-07T23:59:09.553Z,99593.94
